sensor_id;sensor_type;location;lat;lon;timestamp;pressure;altitude;pressure_sealevel;temperature;humidity
64076;BME280;50327;51.328;12.324;2023-03-12T00:02:01;53158.00;;;-144.47;85.16
64076;BME280;50327;51.328;12.324;2023-03-12T00:04:27;53154.03;;;-144.47;85.49
64076;BME280;50327;51.328;12.324;2023-03-12T00:06:52;53185.81;;;-144.47;86.56
64076;BME280;50327;51.328;12.324;2023-03-12T00:09:18;53181.84;;;-144.47;86.72
64076;BME280;50327;51.328;12.324;2023-03-12T00:11:43;53160.00;;;-144.47;87.17
64076;BME280;50327;51.328;12.324;2023-03-12T00:14:09;53158.00;;;-144.47;87.18
64076;BME280;50327;51.328;12.324;2023-03-12T00:16:34;53181.84;;;-144.47;87.68
64076;BME280;50327;51.328;12.324;2023-03-12T00:19:00;53163.97;;;-144.47;87.67
64076;BME280;50327;51.328;12.324;2023-03-12T00:21:25;53156.00;;;-144.47;87.32
64076;BME280;50327;51.328;12.324;2023-03-12T00:23:51;53165.94;;;-144.47;87.18
64076;BME280;50327;51.328;12.324;2023-03-12T00:26:18;53161.97;;;-144.47;87.42
64076;BME280;50327;51.328;12.324;2023-03-12T00:28:43;53173.88;;;-144.47;87.54
64076;BME280;50327;51.328;12.324;2023-03-12T00:31:29;53158.00;;;-144.47;87.48
64076;BME280;50327;51.328;12.324;2023-03-12T00:33:57;53161.97;;;-144.47;87.75
64076;BME280;50327;51.328;12.324;2023-03-12T00:36:25;53193.75;;;-144.47;87.57
64076;BME280;50327;51.328;12.324;2023-03-12T00:38:51;53161.97;;;-144.47;87.19
64076;BME280;50327;51.328;12.324;2023-03-12T00:41:17;53160.00;;;-144.47;87.59
64076;BME280;50327;51.328;12.324;2023-03-12T00:43:48;53152.03;;;-144.47;87.90
64076;BME280;50327;51.328;12.324;2023-03-12T00:46:13;53177.88;;;-144.47;88.31
64076;BME280;50327;51.328;12.324;2023-03-12T00:48:39;53146.09;;;-144.47;88.78
64076;BME280;50327;51.328;12.324;2023-03-12T00:51:05;53158.00;;;-144.47;88.77
64076;BME280;50327;51.328;12.324;2023-03-12T00:53:30;53169.91;;;-144.47;88.79
64076;BME280;50327;51.328;12.324;2023-03-12T00:55:56;53173.88;;;-144.47;88.72
64076;BME280;50327;51.328;12.324;2023-03-12T00:58:21;53150.06;;;-144.47;89.06
64076;BME280;50327;51.328;12.324;2023-03-12T01:00:46;53183.81;;;-144.47;89.16
64076;BME280;50327;51.328;12.324;2023-03-12T01:03:12;53169.91;;;-144.47;89.47
64076;BME280;50327;51.328;12.324;2023-03-12T01:05:37;53169.91;;;-144.47;89.73
64076;BME280;50327;51.328;12.324;2023-03-12T01:08:06;53158.00;;;-144.47;89.78
64076;BME280;50327;51.328;12.324;2023-03-12T01:10:31;53189.78;;;-144.47;90.00
64076;BME280;50327;51.328;12.324;2023-03-12T01:12:57;53183.81;;;-144.47;89.68
64076;BME280;50327;51.328;12.324;2023-03-12T01:15:23;53183.81;;;-144.47;89.68
64076;BME280;50327;51.328;12.324;2023-03-12T01:17:49;53173.88;;;-144.47;89.65
64076;BME280;50327;51.328;12.324;2023-03-12T01:20:15;53177.88;;;-144.47;90.16
64076;BME280;50327;51.328;12.324;2023-03-12T01:22:41;53187.78;;;-144.47;90.28
64076;BME280;50327;51.328;12.324;2023-03-12T01:25:08;53193.75;;;-144.47;90.52
64076;BME280;50327;51.328;12.324;2023-03-12T01:27:37;53177.88;;;-144.47;91.00
64076;BME280;50327;51.328;12.324;2023-03-12T01:30:03;53187.78;;;-144.47;91.45
64076;BME280;50327;51.328;12.324;2023-03-12T01:32:29;53171.91;;;-144.47;91.44
64076;BME280;50327;51.328;12.324;2023-03-12T01:34:57;53195.75;;;-144.47;91.65
64076;BME280;50327;51.328;12.324;2023-03-12T01:37:22;53201.69;;;-144.47;91.73
64076;BME280;50327;51.328;12.324;2023-03-12T01:39:48;53185.81;;;-144.47;91.57
64076;BME280;50327;51.328;12.324;2023-03-12T01:42:13;53197.72;;;-144.47;91.52
64076;BME280;50327;51.328;12.324;2023-03-12T01:44:55;53185.81;;;-144.47;91.72
64076;BME280;50327;51.328;12.324;2023-03-12T01:47:21;53187.78;;;-144.47;91.96
64076;BME280;50327;51.328;12.324;2023-03-12T01:49:47;53183.81;;;-144.47;91.69
64076;BME280;50327;51.328;12.324;2023-03-12T01:52:27;53171.91;;;-144.47;91.76
64076;BME280;50327;51.328;12.324;2023-03-12T01:54:58;53215.59;;;-144.47;91.63
64076;BME280;50327;51.328;12.324;2023-03-12T01:59:57;53193.75;;;-144.47;91.79
64076;BME280;50327;51.328;12.324;2023-03-12T02:02:24;53199.72;;;-144.47;92.07
64076;BME280;50327;51.328;12.324;2023-03-12T02:07:53;53189.78;;;-144.47;91.97
64076;BME280;50327;51.328;12.324;2023-03-12T02:10:21;53191.78;;;-144.47;92.01
64076;BME280;50327;51.328;12.324;2023-03-12T02:12:46;53185.81;;;-144.47;91.75
64076;BME280;50327;51.328;12.324;2023-03-12T02:15:12;53181.84;;;-144.47;91.73
64076;BME280;50327;51.328;12.324;2023-03-12T02:17:37;53179.84;;;-144.47;91.39
64076;BME280;50327;51.328;12.324;2023-03-12T02:20:21;53191.78;;;-144.47;91.63
64076;BME280;50327;51.328;12.324;2023-03-12T02:23:30;53167.94;;;-144.47;91.62
64076;BME280;50327;51.328;12.324;2023-03-12T02:25:57;53158.00;;;-144.47;91.42
64076;BME280;50327;51.328;12.324;2023-03-12T02:28:25;53195.75;;;-144.47;91.64
64076;BME280;50327;51.328;12.324;2023-03-12T02:30:57;53183.81;;;-144.47;91.81
64076;BME280;50327;51.328;12.324;2023-03-12T02:33:24;53211.63;;;-144.47;91.76
64076;BME280;50327;51.328;12.324;2023-03-12T02:35:51;53193.75;;;-144.47;92.17
64076;BME280;50327;51.328;12.324;2023-03-12T02:41:09;53185.81;;;-144.47;91.85
64076;BME280;50327;51.328;12.324;2023-03-12T02:43:36;53183.81;;;-144.47;91.97
64076;BME280;50327;51.328;12.324;2023-03-12T02:46:02;53185.81;;;-144.47;91.87
64076;BME280;50327;51.328;12.324;2023-03-12T02:48:28;53217.59;;;-144.47;92.29
64076;BME280;50327;51.328;12.324;2023-03-12T02:50:53;53213.63;;;-144.47;92.30
64076;BME280;50327;51.328;12.324;2023-03-12T02:53:19;53189.78;;;-144.47;92.72
64076;BME280;50327;51.328;12.324;2023-03-12T02:55:44;53185.81;;;-144.47;92.79
64076;BME280;50327;51.328;12.324;2023-03-12T02:58:09;53160.00;;;-144.47;92.63
64076;BME280;50327;51.328;12.324;2023-03-12T03:00:35;53183.81;;;-144.47;92.56
64076;BME280;50327;51.328;12.324;2023-03-12T03:03:01;53179.84;;;-144.47;92.81
64076;BME280;50327;51.328;12.324;2023-03-12T03:05:27;53193.75;;;-144.47;92.86
64076;BME280;50327;51.328;12.324;2023-03-12T03:07:52;53195.75;;;-144.47;93.68
64076;BME280;50327;51.328;12.324;2023-03-12T03:10:18;53197.72;;;-144.47;93.84
64076;BME280;50327;51.328;12.324;2023-03-12T03:12:43;53205.66;;;-144.47;93.71
64076;BME280;50327;51.328;12.324;2023-03-12T03:15:09;53207.66;;;-144.47;93.72
64076;BME280;50327;51.328;12.324;2023-03-12T03:17:35;53185.81;;;-144.47;93.69
64076;BME280;50327;51.328;12.324;2023-03-12T03:20:01;53189.78;;;-144.47;93.80
64076;BME280;50327;51.328;12.324;2023-03-12T03:22:26;53189.78;;;-144.47;93.97
64076;BME280;50327;51.328;12.324;2023-03-12T03:24:52;53219.56;;;-144.47;94.73
64076;BME280;50327;51.328;12.324;2023-03-12T03:27:18;53193.75;;;-144.47;95.01
64076;BME280;50327;51.328;12.324;2023-03-12T03:29:44;53217.59;;;-144.47;95.08
64076;BME280;50327;51.328;12.324;2023-03-12T03:32:11;53209.66;;;-144.47;95.10
64076;BME280;50327;51.328;12.324;2023-03-12T03:34:37;53229.50;;;-144.47;95.25
64076;BME280;50327;51.328;12.324;2023-03-12T03:37:03;53211.63;;;-144.47;95.37
64076;BME280;50327;51.328;12.324;2023-03-12T03:39:28;53231.50;;;-144.47;95.50
64076;BME280;50327;51.328;12.324;2023-03-12T03:41:54;53205.66;;;-144.47;95.17
64076;BME280;50327;51.328;12.324;2023-03-12T03:44:19;53213.63;;;-144.47;95.23
64076;BME280;50327;51.328;12.324;2023-03-12T03:46:47;53225.53;;;-144.47;95.42
64076;BME280;50327;51.328;12.324;2023-03-12T03:49:13;53217.59;;;-144.47;95.41
64076;BME280;50327;51.328;12.324;2023-03-12T03:51:39;53193.75;;;-144.47;95.47
64076;BME280;50327;51.328;12.324;2023-03-12T03:54:07;53207.66;;;-144.47;95.56
64076;BME280;50327;51.328;12.324;2023-03-12T03:56:32;53213.63;;;-144.47;95.66
64076;BME280;50327;51.328;12.324;2023-03-12T03:58:58;53205.66;;;-144.47;95.47
64076;BME280;50327;51.328;12.324;2023-03-12T04:01:26;53237.44;;;-144.47;95.77
64076;BME280;50327;51.328;12.324;2023-03-12T04:03:51;53223.56;;;-144.47;96.08
64076;BME280;50327;51.328;12.324;2023-03-12T04:06:17;53247.38;;;-144.47;96.35
64076;BME280;50327;51.328;12.324;2023-03-12T04:08:42;53233.47;;;-144.47;96.32
64076;BME280;50327;51.328;12.324;2023-03-12T04:11:13;53229.50;;;-144.47;96.40
64076;BME280;50327;51.328;12.324;2023-03-12T04:13:39;53259.31;;;-144.47;97.08
64076;BME280;50327;51.328;12.324;2023-03-12T04:16:05;53237.44;;;-144.47;97.02
64076;BME280;50327;51.328;12.324;2023-03-12T04:18:31;53241.44;;;-144.47;97.41
64076;BME280;50327;51.328;12.324;2023-03-12T04:20:56;53227.53;;;-144.47;97.46
64076;BME280;50327;51.328;12.324;2023-03-12T04:23:24;53197.72;;;-144.47;97.56
64076;BME280;50327;51.328;12.324;2023-03-12T04:25:50;53229.50;;;-144.47;97.55
64076;BME280;50327;51.328;12.324;2023-03-12T04:28:16;53171.91;;;-144.47;97.38
64076;BME280;50327;51.328;12.324;2023-03-12T04:30:41;53183.81;;;-144.47;97.44
64076;BME280;50327;51.328;12.324;2023-03-12T04:33:07;53231.50;;;-144.47;97.82
64076;BME280;50327;51.328;12.324;2023-03-12T04:35:32;53221.56;;;-144.47;97.24
64076;BME280;50327;51.328;12.324;2023-03-12T04:38:00;53225.53;;;-144.47;97.24
64076;BME280;50327;51.328;12.324;2023-03-12T04:40:26;53225.53;;;-144.47;96.99
64076;BME280;50327;51.328;12.324;2023-03-12T04:42:51;53223.56;;;-144.47;97.06
64076;BME280;50327;51.328;12.324;2023-03-12T04:45:16;53219.56;;;-144.47;97.08
64076;BME280;50327;51.328;12.324;2023-03-12T04:47:42;53233.47;;;-144.47;96.95
64076;BME280;50327;51.328;12.324;2023-03-12T04:50:08;53241.44;;;-144.47;97.08
64076;BME280;50327;51.328;12.324;2023-03-12T04:52:33;53249.38;;;-144.47;97.26
64076;BME280;50327;51.328;12.324;2023-03-12T04:54:59;53217.59;;;-144.47;97.14
64076;BME280;50327;51.328;12.324;2023-03-12T04:57:25;53213.63;;;-144.47;97.38
64076;BME280;50327;51.328;12.324;2023-03-12T04:59:51;53211.63;;;-144.47;97.06
64076;BME280;50327;51.328;12.324;2023-03-12T05:02:16;53223.56;;;-144.47;97.42
64076;BME280;50327;51.328;12.324;2023-03-12T05:04:41;53211.63;;;-144.47;98.33
64076;BME280;50327;51.328;12.324;2023-03-12T05:07:07;53263.28;;;-144.47;98.22
64076;BME280;50327;51.328;12.324;2023-03-12T05:09:32;53223.56;;;-144.47;98.53
64076;BME280;50327;51.328;12.324;2023-03-12T05:11:57;53247.38;;;-144.47;98.14
64076;BME280;50327;51.328;12.324;2023-03-12T05:14:23;53229.50;;;-144.47;98.09
64076;BME280;50327;51.328;12.324;2023-03-12T05:16:48;53239.44;;;-144.47;98.07
64076;BME280;50327;51.328;12.324;2023-03-12T05:19:14;53237.44;;;-144.47;98.37
64076;BME280;50327;51.328;12.324;2023-03-12T05:21:40;53253.34;;;-144.47;98.39
64076;BME280;50327;51.328;12.324;2023-03-12T05:24:07;53229.50;;;-144.47;98.52
64076;BME280;50327;51.328;12.324;2023-03-12T05:26:33;53187.78;;;-144.47;98.51
64076;BME280;50327;51.328;12.324;2023-03-12T05:29:00;53225.53;;;-144.47;99.13
64076;BME280;50327;51.328;12.324;2023-03-12T05:31:26;53225.53;;;-144.47;98.84
64076;BME280;50327;51.328;12.324;2023-03-12T05:33:52;53225.53;;;-144.47;99.24
64076;BME280;50327;51.328;12.324;2023-03-12T05:36:18;53231.50;;;-144.47;99.36
64076;BME280;50327;51.328;12.324;2023-03-12T05:38:44;53227.53;;;-144.47;99.33
64076;BME280;50327;51.328;12.324;2023-03-12T05:41:18;53245.41;;;-144.47;99.80
64076;BME280;50327;51.328;12.324;2023-03-12T05:43:43;53245.41;;;-144.47;100.00
64076;BME280;50327;51.328;12.324;2023-03-12T05:46:09;53209.66;;;-144.47;100.00
64076;BME280;50327;51.328;12.324;2023-03-12T05:48:35;53197.72;;;-144.47;100.00
64076;BME280;50327;51.328;12.324;2023-03-12T05:51:00;53279.16;;;-144.47;100.00
64076;BME280;50327;51.328;12.324;2023-03-12T05:53:26;53231.50;;;-144.47;100.00
64076;BME280;50327;51.328;12.324;2023-03-12T05:55:51;53215.59;;;-144.47;100.00
64076;BME280;50327;51.328;12.324;2023-03-12T05:58:17;53229.50;;;-144.47;100.00
64076;BME280;50327;51.328;12.324;2023-03-12T06:00:43;53215.59;;;-144.47;100.00
64076;BME280;50327;51.328;12.324;2023-03-12T06:03:10;53213.63;;;-144.47;100.00
64076;BME280;50327;51.328;12.324;2023-03-12T06:05:36;53229.50;;;-144.47;100.00
64076;BME280;50327;51.328;12.324;2023-03-12T06:08:02;53257.31;;;-144.47;100.00
64076;BME280;50327;51.328;12.324;2023-03-12T06:10:27;53249.38;;;-144.47;100.00
64076;BME280;50327;51.328;12.324;2023-03-12T06:12:53;53223.56;;;-144.47;100.00
64076;BME280;50327;51.328;12.324;2023-03-12T06:15:18;53239.44;;;-144.47;100.00
64076;BME280;50327;51.328;12.324;2023-03-12T06:17:44;53199.72;;;-144.47;100.00
64076;BME280;50327;51.328;12.324;2023-03-12T06:20:10;53237.44;;;-144.47;100.00
64076;BME280;50327;51.328;12.324;2023-03-12T06:22:35;53209.66;;;-144.47;99.63
64076;BME280;50327;51.328;12.324;2023-03-12T06:25:01;53187.78;;;-144.47;99.17
64076;BME280;50327;51.328;12.324;2023-03-12T06:27:27;53215.59;;;-144.47;98.54
64076;BME280;50327;51.328;12.324;2023-03-12T06:29:52;53197.72;;;-144.47;98.01
64076;BME280;50327;51.328;12.324;2023-03-12T06:32:18;53163.97;;;-144.47;97.27
64076;BME280;50327;51.328;12.324;2023-03-12T06:34:43;53221.56;;;-144.47;95.80
64076;BME280;50327;51.328;12.324;2023-03-12T06:37:10;53177.88;;;-144.47;94.20
64076;BME280;50327;51.328;12.324;2023-03-12T06:39:36;53193.75;;;-144.47;93.58
64076;BME280;50327;51.328;12.324;2023-03-12T06:42:02;53181.84;;;-144.47;92.45
64076;BME280;50327;51.328;12.324;2023-03-12T06:44:27;53142.09;;;-144.47;91.59
64076;BME280;50327;51.328;12.324;2023-03-12T06:46:53;53163.97;;;-144.47;93.46
64076;BME280;50327;51.328;12.324;2023-03-12T06:49:18;53160.00;;;-144.47;96.29
64076;BME280;50327;51.328;12.324;2023-03-12T06:51:43;53161.97;;;-144.47;92.05
64076;BME280;50327;51.328;12.324;2023-03-12T06:54:09;53114.31;;;-144.47;88.41
64076;BME280;50327;51.328;12.324;2023-03-12T06:56:34;53144.09;;;-144.47;84.23
64076;BME280;50327;51.328;12.324;2023-03-12T06:59:00;53163.97;;;-144.47;83.59
64076;BME280;50327;51.328;12.324;2023-03-12T07:01:25;53146.09;;;-144.47;83.19
64076;BME280;50327;51.328;12.324;2023-03-12T07:03:50;53140.13;;;-144.47;83.30
64076;BME280;50327;51.328;12.324;2023-03-12T07:06:21;53122.25;;;-144.47;83.13
64076;BME280;50327;51.328;12.324;2023-03-12T07:08:47;53138.13;;;-144.47;83.04
64076;BME280;50327;51.328;12.324;2023-03-12T07:11:13;53138.13;;;-144.47;82.80
64076;BME280;50327;51.328;12.324;2023-03-12T07:13:40;53128.22;;;-144.47;82.36
64076;BME280;50327;51.328;12.324;2023-03-12T07:16:06;53114.31;;;-144.47;82.11
64076;BME280;50327;51.328;12.324;2023-03-12T07:18:32;53138.13;;;-144.47;82.00
64076;BME280;50327;51.328;12.324;2023-03-12T07:20:57;53142.09;;;-144.47;82.20
64076;BME280;50327;51.328;12.324;2023-03-12T07:23:23;53120.25;;;-144.47;81.92
64076;BME280;50327;51.328;12.324;2023-03-12T07:25:49;53140.13;;;-144.47;81.90
64076;BME280;50327;51.328;12.324;2023-03-12T07:28:15;53102.38;;;-144.47;80.39
64076;BME280;50327;51.328;12.324;2023-03-12T07:30:43;53094.44;;;-144.47;80.38
64076;BME280;50327;51.328;12.324;2023-03-12T07:33:16;53092.44;;;-144.47;80.48
64076;BME280;50327;51.328;12.324;2023-03-12T07:35:41;53122.25;;;-144.47;79.43
64076;BME280;50327;51.328;12.324;2023-03-12T07:38:07;53112.31;;;-144.47;79.22
64076;BME280;50327;51.328;12.324;2023-03-12T07:40:33;53088.47;;;-144.47;78.05
64076;BME280;50327;51.328;12.324;2023-03-12T07:42:59;53102.38;;;-144.47;78.17
64076;BME280;50327;51.328;12.324;2023-03-12T07:45:24;53084.50;;;-144.47;77.14
64076;BME280;50327;51.328;12.324;2023-03-12T07:47:50;53080.53;;;-144.47;76.00
64076;BME280;50327;51.328;12.324;2023-03-12T07:50:17;53072.59;;;-144.47;74.57
64076;BME280;50327;51.328;12.324;2023-03-12T07:52:43;53082.53;;;-144.47;75.00
64076;BME280;50327;51.328;12.324;2023-03-12T07:55:23;53106.34;;;-144.47;74.51
64076;BME280;50327;51.328;12.324;2023-03-12T07:57:48;53074.56;;;-144.47;73.89
64076;BME280;50327;51.328;12.324;2023-03-12T08:00:14;53094.44;;;-144.47;73.18
64076;BME280;50327;51.328;12.324;2023-03-12T08:02:41;53096.41;;;-144.47;73.17
64076;BME280;50327;51.328;12.324;2023-03-12T08:05:07;53066.63;;;-144.47;72.18
64076;BME280;50327;51.328;12.324;2023-03-12T08:07:32;53096.41;;;-144.47;71.83
64076;BME280;50327;51.328;12.324;2023-03-12T08:09:59;53070.59;;;-144.47;71.98
64076;BME280;50327;51.328;12.324;2023-03-12T08:12:26;53060.66;;;-144.47;71.45
64076;BME280;50327;51.328;12.324;2023-03-12T08:14:51;53056.69;;;-144.47;71.26
64076;BME280;50327;51.328;12.324;2023-03-12T08:17:17;53038.81;;;-144.47;70.42
64076;BME280;50327;51.328;12.324;2023-03-12T08:19:42;53050.75;;;-144.47;68.86
64076;BME280;50327;51.328;12.324;2023-03-12T08:22:08;53050.75;;;-144.47;68.89
64076;BME280;50327;51.328;12.324;2023-03-12T08:24:33;53074.56;;;-144.47;68.57
64076;BME280;50327;51.328;12.324;2023-03-12T08:26:59;53056.69;;;-144.47;68.44
64076;BME280;50327;51.328;12.324;2023-03-12T08:29:25;53050.75;;;-144.47;67.53
64076;BME280;50327;51.328;12.324;2023-03-12T08:31:50;53036.84;;;-144.47;67.21
64076;BME280;50327;51.328;12.324;2023-03-12T08:34:16;53062.66;;;-144.47;67.20
64076;BME280;50327;51.328;12.324;2023-03-12T08:36:41;53026.91;;;-144.47;67.60
64076;BME280;50327;51.328;12.324;2023-03-12T08:39:07;53034.84;;;-144.47;67.48
64076;BME280;50327;51.328;12.324;2023-03-12T08:41:35;53007.03;;;-144.47;66.96
64076;BME280;50327;51.328;12.324;2023-03-12T08:44:00;53058.69;;;-144.47;66.52
64076;BME280;50327;51.328;12.324;2023-03-12T08:46:26;53064.66;;;-144.47;65.99
64076;BME280;50327;51.328;12.324;2023-03-12T08:48:51;53013.00;;;-144.47;64.56
64076;BME280;50327;51.328;12.324;2023-03-12T08:51:17;53018.97;;;-144.47;63.44
64076;BME280;50327;51.328;12.324;2023-03-12T08:53:42;53013.00;;;-144.47;63.46
64076;BME280;50327;51.328;12.324;2023-03-12T08:56:07;53042.78;;;-144.47;64.02
64076;BME280;50327;51.328;12.324;2023-03-12T08:58:33;53026.91;;;-144.47;63.45
64076;BME280;50327;51.328;12.324;2023-03-12T09:00:58;53022.94;;;-144.47;62.63
64076;BME280;50327;51.328;12.324;2023-03-12T09:03:24;52989.16;;;-144.47;62.83
64076;BME280;50327;51.328;12.324;2023-03-12T09:06:00;53030.88;;;-144.47;62.43
64076;BME280;50327;51.328;12.324;2023-03-12T09:08:25;53013.00;;;-144.47;61.14
64076;BME280;50327;51.328;12.324;2023-03-12T09:10:51;53016.97;;;-144.47;60.16
64076;BME280;50327;51.328;12.324;2023-03-12T09:13:16;52997.09;;;-144.47;59.50
64076;BME280;50327;51.328;12.324;2023-03-12T09:15:44;52975.25;;;-144.47;59.23
64076;BME280;50327;51.328;12.324;2023-03-12T09:18:10;52999.09;;;-144.47;59.29
64076;BME280;50327;51.328;12.324;2023-03-12T09:20:35;52983.22;;;-144.47;59.11
64076;BME280;50327;51.328;12.324;2023-03-12T09:23:01;52969.31;;;-144.47;58.55
64076;BME280;50327;51.328;12.324;2023-03-12T09:25:26;52969.31;;;-144.47;58.38
64076;BME280;50327;51.328;12.324;2023-03-12T09:27:51;52997.09;;;-144.47;58.81
64076;BME280;50327;51.328;12.324;2023-03-12T09:30:19;52973.28;;;-144.47;58.93
64076;BME280;50327;51.328;12.324;2023-03-12T09:32:45;52999.09;;;-144.47;58.85
64076;BME280;50327;51.328;12.324;2023-03-12T09:35:13;52957.38;;;-144.47;58.85
64076;BME280;50327;51.328;12.324;2023-03-12T09:37:38;52973.28;;;-144.47;58.84
64076;BME280;50327;51.328;12.324;2023-03-12T09:40:05;52983.22;;;-144.47;57.59
64076;BME280;50327;51.328;12.324;2023-03-12T09:42:40;52971.28;;;-144.47;56.96
64076;BME280;50327;51.328;12.324;2023-03-12T09:45:12;52971.28;;;-144.47;56.01
64076;BME280;50327;51.328;12.324;2023-03-12T09:47:46;52977.25;;;-144.47;55.17
64076;BME280;50327;51.328;12.324;2023-03-12T09:50:20;52959.38;;;-144.47;54.81
64076;BME280;50327;51.328;12.324;2023-03-12T09:53:09;52973.28;;;-144.47;55.11
64076;BME280;50327;51.328;12.324;2023-03-12T09:55:38;52957.38;;;-144.47;54.68
64076;BME280;50327;51.328;12.324;2023-03-12T09:58:21;52955.41;;;-144.47;54.25
64076;BME280;50327;51.328;12.324;2023-03-12T10:00:59;52965.34;;;-144.47;53.30
64076;BME280;50327;51.328;12.324;2023-03-12T10:07:28;52947.47;;;-144.47;51.76
64076;BME280;50327;51.328;12.324;2023-03-12T10:27:53;52947.47;;;-144.47;52.34
64076;BME280;50327;51.328;12.324;2023-03-12T10:30:22;52951.44;;;-144.47;52.44
64076;BME280;50327;51.328;12.324;2023-03-12T10:32:53;52941.50;;;-144.47;52.54
64076;BME280;50327;51.328;12.324;2023-03-12T10:35:24;52947.47;;;-144.47;53.41
64076;BME280;50327;51.328;12.324;2023-03-12T10:37:56;52947.47;;;-144.47;52.65
64076;BME280;50327;51.328;12.324;2023-03-12T10:40:29;52961.34;;;-144.47;51.66
64076;BME280;50327;51.328;12.324;2023-03-12T10:42:54;52959.38;;;-144.47;51.56
64076;BME280;50327;51.328;12.324;2023-03-12T10:48:21;52917.66;;;-144.47;51.41
64076;BME280;50327;51.328;12.324;2023-03-12T10:51:09;52945.47;;;-144.47;51.27
64076;BME280;50327;51.328;12.324;2023-03-12T10:53:43;52949.44;;;-144.47;51.25
64076;BME280;50327;51.328;12.324;2023-03-12T10:56:17;52923.63;;;-144.47;51.10
64076;BME280;50327;51.328;12.324;2023-03-12T10:58:48;52907.72;;;-144.47;50.86
64076;BME280;50327;51.328;12.324;2023-03-12T11:03:40;52955.41;;;-144.47;51.14
64076;BME280;50327;51.328;12.324;2023-03-12T11:06:06;52933.56;;;-144.47;50.55
64076;BME280;50327;51.328;12.324;2023-03-12T11:08:35;52943.47;;;-144.47;50.25
64076;BME280;50327;51.328;12.324;2023-03-12T11:11:02;52941.50;;;-144.47;51.17
64076;BME280;50327;51.328;12.324;2023-03-12T11:15:58;52919.66;;;-144.47;50.65
64076;BME280;50327;51.328;12.324;2023-03-12T11:18:30;52927.59;;;-144.47;50.86
64076;BME280;50327;51.328;12.324;2023-03-12T11:23:36;52935.53;;;-144.47;50.68
64076;BME280;50327;51.328;12.324;2023-03-12T11:26:50;52939.50;;;-144.47;50.65
64076;BME280;50327;51.328;12.324;2023-03-12T11:28:57;52919.66;;;-144.47;50.51
64076;BME280;50327;51.328;12.324;2023-03-12T11:31:29;52903.75;;;-144.47;50.35
64076;BME280;50327;51.328;12.324;2023-03-12T11:34:04;52897.81;;;-144.47;51.14
64076;BME280;50327;51.328;12.324;2023-03-12T11:36:50;52929.59;;;-144.47;51.73
64076;BME280;50327;51.328;12.324;2023-03-12T12:01:19;52927.59;;;-144.47;48.66
64076;BME280;50327;51.328;12.324;2023-03-12T12:09:24;52903.75;;;-144.47;47.35
64076;BME280;50327;51.328;12.324;2023-03-12T12:23:29;52923.63;;;-144.47;49.01
64076;BME280;50327;51.328;12.324;2023-03-12T12:26:38;52933.56;;;-144.47;47.69
64076;BME280;50327;51.328;12.324;2023-03-12T12:31:39;52895.81;;;-144.47;47.57
64076;BME280;50327;51.328;12.324;2023-03-12T12:39:41;52951.44;;;-144.47;47.69
64076;BME280;50327;51.328;12.324;2023-03-12T12:42:17;52933.56;;;-144.47;47.92
64076;BME280;50327;51.328;12.324;2023-03-12T12:44:50;52943.47;;;-144.47;48.01
64076;BME280;50327;51.328;12.324;2023-03-12T12:47:36;52927.59;;;-144.47;48.26
64076;BME280;50327;51.328;12.324;2023-03-12T12:50:04;52933.56;;;-144.47;47.89
64076;BME280;50327;51.328;12.324;2023-03-12T12:52:29;52921.63;;;-144.47;48.65
64076;BME280;50327;51.328;12.324;2023-03-12T12:57:59;52927.59;;;-144.47;49.24
64076;BME280;50327;51.328;12.324;2023-03-12T13:03:01;52901.78;;;-144.47;49.85
64076;BME280;50327;51.328;12.324;2023-03-12T13:08:02;52915.69;;;-144.47;49.73
64076;BME280;50327;51.328;12.324;2023-03-12T13:12:57;52895.81;;;-144.47;49.70
64076;BME280;50327;51.328;12.324;2023-03-12T13:18:02;52909.72;;;-144.47;51.91
64076;BME280;50327;51.328;12.324;2023-03-12T13:20:32;52921.63;;;-144.47;53.33
64076;BME280;50327;51.328;12.324;2023-03-12T13:29:40;52915.69;;;-144.47;61.25
64076;BME280;50327;51.328;12.324;2023-03-12T13:32:08;52945.47;;;-144.47;65.57
64076;BME280;50327;51.328;12.324;2023-03-12T13:34:44;52959.38;;;-144.47;67.95
64076;BME280;50327;51.328;12.324;2023-03-12T13:37:19;52935.53;;;-144.47;68.65
64076;BME280;50327;51.328;12.324;2023-03-12T13:39:50;52957.38;;;-144.47;68.19
64076;BME280;50327;51.328;12.324;2023-03-12T13:44:47;52947.47;;;-144.47;66.23
64076;BME280;50327;51.328;12.324;2023-03-12T13:52:29;52959.38;;;-144.47;65.81
64076;BME280;50327;51.328;12.324;2023-03-12T13:55:01;52981.22;;;-144.47;65.69
64076;BME280;50327;51.328;12.324;2023-03-12T13:57:44;52943.47;;;-144.47;65.37
64076;BME280;50327;51.328;12.324;2023-03-12T14:00:23;52959.38;;;-144.47;64.97
64076;BME280;50327;51.328;12.324;2023-03-12T14:03:15;52957.38;;;-144.47;64.64
64076;BME280;50327;51.328;12.324;2023-03-12T14:16:53;52961.34;;;-144.47;65.55
64076;BME280;50327;51.328;12.324;2023-03-12T14:19:25;52941.50;;;-144.47;65.58
64076;BME280;50327;51.328;12.324;2023-03-12T14:21:52;52951.44;;;-144.47;65.89
64076;BME280;50327;51.328;12.324;2023-03-12T14:24:30;52963.34;;;-144.47;66.44
64076;BME280;50327;51.328;12.324;2023-03-12T14:27:01;52973.28;;;-144.47;67.29
64076;BME280;50327;51.328;12.324;2023-03-12T14:29:30;52947.47;;;-144.47;67.85
64076;BME280;50327;51.328;12.324;2023-03-12T14:32:03;52981.22;;;-144.47;67.80
64076;BME280;50327;51.328;12.324;2023-03-12T14:34:34;52981.22;;;-144.47;67.74
64076;BME280;50327;51.328;12.324;2023-03-12T14:37:14;52951.44;;;-144.47;68.04
64076;BME280;50327;51.328;12.324;2023-03-12T14:40:00;52943.47;;;-144.47;68.87
64076;BME280;50327;51.328;12.324;2023-03-12T14:45:15;52975.25;;;-144.47;70.08